sensor_id;sensor_type;location;lat;lon;timestamp;P1;durP1;ratioP1;P2;durP2;ratioP2
71941;SDS011;59997;53.300;-6.260;2023-02-01T00:01:39;17.13;;;2.95;;
71941;SDS011;59997;53.300;-6.260;2023-02-01T00:04:04;20.07;;;2.47;;
71941;SDS011;59997;53.300;-6.260;2023-02-01T00:06:30;15.52;;;2.28;;
71941;SDS011;59997;53.300;-6.260;2023-02-01T00:08:55;20.13;;;2.20;;
71941;SDS011;59997;53.300;-6.260;2023-02-01T00:11:21;18.07;;;2.20;;
71941;SDS011;59997;53.300;-6.260;2023-02-01T00:13:48;20.17;;;1.95;;
71941;SDS011;59997;53.300;-6.260;2023-02-01T00:18:41;19.55;;;2.55;;
71941;SDS011;59997;53.300;-6.260;2023-02-01T00:21:07;20.23;;;2.25;;
71941;SDS011;59997;53.300;-6.260;2023-02-01T00:23:36;20.13;;;2.28;;
71941;SDS011;59997;53.300;-6.260;2023-02-01T00:26:03;13.32;;;2.17;;
71941;SDS011;59997;53.300;-6.260;2023-02-01T00:28:30;17.05;;;1.65;;
71941;SDS011;59997;53.300;-6.260;2023-02-01T00:30:59;15.52;;;1.98;;
71941;SDS011;59997;53.300;-6.260;2023-02-01T00:33:27;11.27;;;1.95;;
71941;SDS011;59997;53.300;-6.260;2023-02-01T00:36:00;12.60;;;1.83;;
71941;SDS011;59997;53.300;-6.260;2023-02-01T00:38:27;13.43;;;1.50;;
71941;SDS011;59997;53.300;-6.260;2023-02-01T00:40:54;18.63;;;2.28;;
71941;SDS011;59997;53.300;-6.260;2023-02-01T00:43:26;10.35;;;2.20;;
71941;SDS011;59997;53.300;-6.260;2023-02-01T00:45:51;15.38;;;1.90;;
71941;SDS011;59997;53.300;-6.260;2023-02-01T00:48:17;14.30;;;2.03;;
71941;SDS011;59997;53.300;-6.260;2023-02-01T00:50:42;12.77;;;1.57;;
71941;SDS011;59997;53.300;-6.260;2023-02-01T00:53:09;12.20;;;1.85;;
71941;SDS011;59997;53.300;-6.260;2023-02-01T00:55:35;13.13;;;1.33;;
71941;SDS011;59997;53.300;-6.260;2023-02-01T00:58:00;16.27;;;1.63;;
71941;SDS011;59997;53.300;-6.260;2023-02-01T01:00:26;14.13;;;2.03;;
71941;SDS011;59997;53.300;-6.260;2023-02-01T01:02:51;13.57;;;2.03;;
71941;SDS011;59997;53.300;-6.260;2023-02-01T01:05:17;18.38;;;1.90;;
71941;SDS011;59997;53.300;-6.260;2023-02-01T01:07:42;14.53;;;1.50;;
71941;SDS011;59997;53.300;-6.260;2023-02-01T01:10:08;12.57;;;1.80;;
71941;SDS011;59997;53.300;-6.260;2023-02-01T01:12:34;17.23;;;1.95;;
71941;SDS011;59997;53.300;-6.260;2023-02-01T01:14:59;18.40;;;2.40;;
71941;SDS011;59997;53.300;-6.260;2023-02-01T01:17:24;20.13;;;2.13;;
71941;SDS011;59997;53.300;-6.260;2023-02-01T01:19:50;13.00;;;1.60;;
71941;SDS011;59997;53.300;-6.260;2023-02-01T01:22:15;14.68;;;2.28;;
71941;SDS011;59997;53.300;-6.260;2023-02-01T01:24:41;14.67;;;2.13;;
71941;SDS011;59997;53.300;-6.260;2023-02-01T01:27:06;20.97;;;2.43;;
71941;SDS011;59997;53.300;-6.260;2023-02-01T01:29:32;17.43;;;2.23;;
71941;SDS011;59997;53.300;-6.260;2023-02-01T01:31:57;16.17;;;2.00;;
71941;SDS011;59997;53.300;-6.260;2023-02-01T01:34:23;12.97;;;1.80;;
71941;SDS011;59997;53.300;-6.260;2023-02-01T01:36:48;18.73;;;2.03;;
71941;SDS011;59997;53.300;-6.260;2023-02-01T01:39:13;16.80;;;2.30;;
71941;SDS011;59997;53.300;-6.260;2023-02-01T01:41:39;16.92;;;2.42;;
71941;SDS011;59997;53.300;-6.260;2023-02-01T01:44:05;15.80;;;1.77;;
71941;SDS011;59997;53.300;-6.260;2023-02-01T01:46:36;22.45;;;2.28;;
71941;SDS011;59997;53.300;-6.260;2023-02-01T01:51:58;14.40;;;1.80;;
71941;SDS011;59997;53.300;-6.260;2023-02-01T01:54:33;15.65;;;2.28;;
71941;SDS011;59997;53.300;-6.260;2023-02-01T01:57:12;14.43;;;1.90;;
71941;SDS011;59997;53.300;-6.260;2023-02-01T01:59:41;20.42;;;1.88;;
71941;SDS011;59997;53.300;-6.260;2023-02-01T02:02:11;14.57;;;2.00;;
71941;SDS011;59997;53.300;-6.260;2023-02-01T02:04:36;21.30;;;2.33;;
71941;SDS011;59997;53.300;-6.260;2023-02-01T02:07:03;13.90;;;1.40;;
71941;SDS011;59997;53.300;-6.260;2023-02-01T02:09:32;18.45;;;2.20;;
71941;SDS011;59997;53.300;-6.260;2023-02-01T02:11:58;17.85;;;2.17;;
71941;SDS011;59997;53.300;-6.260;2023-02-01T02:14:24;17.30;;;1.98;;
71941;SDS011;59997;53.300;-6.260;2023-02-01T02:19:38;18.52;;;2.15;;
71941;SDS011;59997;53.300;-6.260;2023-02-01T02:30:45;18.80;;;2.27;;
71941;SDS011;59997;53.300;-6.260;2023-02-01T02:41:48;18.05;;;2.10;;
71941;SDS011;59997;53.300;-6.260;2023-02-01T02:44:45;20.50;;;2.53;;
71941;SDS011;59997;53.300;-6.260;2023-02-01T02:47:41;17.80;;;1.83;;
71941;SDS011;59997;53.300;-6.260;2023-02-01T02:53:21;16.95;;;2.22;;
71941;SDS011;59997;53.300;-6.260;2023-02-01T02:56:11;12.57;;;1.83;;
71941;SDS011;59997;53.300;-6.260;2023-02-01T02:58:56;19.80;;;2.47;;
71941;SDS011;59997;53.300;-6.260;2023-02-01T03:01:42;11.25;;;1.15;;
71941;SDS011;59997;53.300;-6.260;2023-02-01T03:04:27;17.55;;;2.40;;
71941;SDS011;59997;53.300;-6.260;2023-02-01T03:06:53;24.30;;;3.10;;
71941;SDS011;59997;53.300;-6.260;2023-02-01T03:09:31;12.60;;;2.08;;
71941;SDS011;59997;53.300;-6.260;2023-02-01T03:12:02;13.70;;;1.98;;
71941;SDS011;59997;53.300;-6.260;2023-02-01T03:14:54;20.88;;;2.15;;
71941;SDS011;59997;53.300;-6.260;2023-02-01T03:17:27;12.02;;;1.58;;
71941;SDS011;59997;53.300;-6.260;2023-02-01T03:19:59;22.13;;;2.15;;
71941;SDS011;59997;53.300;-6.260;2023-02-01T03:22:28;17.30;;;1.75;;
71941;SDS011;59997;53.300;-6.260;2023-02-01T03:25:04;25.25;;;2.45;;
71941;SDS011;59997;53.300;-6.260;2023-02-01T03:27:35;19.45;;;1.50;;
71941;SDS011;59997;53.300;-6.260;2023-02-01T03:30:29;22.85;;;2.47;;
71941;SDS011;59997;53.300;-6.260;2023-02-01T03:33:00;14.35;;;2.13;;
71941;SDS011;59997;53.300;-6.260;2023-02-01T03:35:29;19.25;;;2.30;;
71941;SDS011;59997;53.300;-6.260;2023-02-01T03:38:11;18.25;;;2.35;;
71941;SDS011;59997;53.300;-6.260;2023-02-01T03:41:28;21.33;;;2.45;;
71941;SDS011;59997;53.300;-6.260;2023-02-01T03:46:50;19.77;;;2.10;;
71941;SDS011;59997;53.300;-6.260;2023-02-01T03:49:20;19.58;;;2.35;;
71941;SDS011;59997;53.300;-6.260;2023-02-01T03:51:50;17.90;;;2.35;;
71941;SDS011;59997;53.300;-6.260;2023-02-01T03:54:16;22.38;;;2.95;;
71941;SDS011;59997;53.300;-6.260;2023-02-01T03:56:43;15.60;;;2.40;;
71941;SDS011;59997;53.300;-6.260;2023-02-01T03:59:11;18.52;;;2.03;;
71941;SDS011;59997;53.300;-6.260;2023-02-01T04:01:38;16.10;;;2.15;;
71941;SDS011;59997;53.300;-6.260;2023-02-01T04:04:04;16.30;;;2.15;;
71941;SDS011;59997;53.300;-6.260;2023-02-01T04:06:30;12.73;;;2.00;;
71941;SDS011;59997;53.300;-6.260;2023-02-01T04:08:55;12.32;;;1.88;;
71941;SDS011;59997;53.300;-6.260;2023-02-01T04:11:21;19.97;;;2.10;;
71941;SDS011;59997;53.300;-6.260;2023-02-01T04:13:46;20.30;;;2.23;;
71941;SDS011;59997;53.300;-6.260;2023-02-01T04:16:12;12.38;;;1.80;;
71941;SDS011;59997;53.300;-6.260;2023-02-01T04:18:37;15.93;;;2.23;;
71941;SDS011;59997;53.300;-6.260;2023-02-01T04:21:03;16.90;;;1.77;;
71941;SDS011;59997;53.300;-6.260;2023-02-01T04:23:29;18.75;;;2.50;;
71941;SDS011;59997;53.300;-6.260;2023-02-01T04:26:00;12.40;;;1.27;;
71941;SDS011;59997;53.300;-6.260;2023-02-01T04:28:27;19.65;;;1.63;;
71941;SDS011;59997;53.300;-6.260;2023-02-01T04:30:52;14.27;;;1.60;;
71941;SDS011;59997;53.300;-6.260;2023-02-01T04:33:18;18.10;;;1.90;;
71941;SDS011;59997;53.300;-6.260;2023-02-01T04:35:43;20.23;;;2.00;;
71941;SDS011;59997;53.300;-6.260;2023-02-01T04:38:09;15.97;;;2.07;;
71941;SDS011;59997;53.300;-6.260;2023-02-01T04:40:34;17.43;;;1.73;;
71941;SDS011;59997;53.300;-6.260;2023-02-01T04:43:02;17.05;;;2.03;;
71941;SDS011;59997;53.300;-6.260;2023-02-01T04:45:28;16.75;;;2.05;;
71941;SDS011;59997;53.300;-6.260;2023-02-01T04:47:54;15.37;;;2.43;;
71941;SDS011;59997;53.300;-6.260;2023-02-01T04:50:19;22.53;;;2.10;;
71941;SDS011;59997;53.300;-6.260;2023-02-01T04:52:45;18.88;;;2.13;;
71941;SDS011;59997;53.300;-6.260;2023-02-01T04:55:11;16.83;;;1.30;;
71941;SDS011;59997;53.300;-6.260;2023-02-01T04:57:38;16.38;;;2.08;;
71941;SDS011;59997;53.300;-6.260;2023-02-01T05:00:06;20.15;;;2.00;;
71941;SDS011;59997;53.300;-6.260;2023-02-01T05:02:32;17.20;;;2.00;;
71941;SDS011;59997;53.300;-6.260;2023-02-01T05:04:57;18.40;;;1.77;;
71941;SDS011;59997;53.300;-6.260;2023-02-01T05:07:23;16.10;;;1.57;;
71941;SDS011;59997;53.300;-6.260;2023-02-01T05:09:49;13.07;;;1.70;;
71941;SDS011;59997;53.300;-6.260;2023-02-01T05:12:14;21.93;;;2.27;;
71941;SDS011;59997;53.300;-6.260;2023-02-01T05:14:59;17.08;;;1.52;;
71941;SDS011;59997;53.300;-6.260;2023-02-01T05:17:24;21.20;;;2.03;;
71941;SDS011;59997;53.300;-6.260;2023-02-01T05:19:49;14.05;;;2.05;;
71941;SDS011;59997;53.300;-6.260;2023-02-01T05:22:15;14.43;;;1.80;;
71941;SDS011;59997;53.300;-6.260;2023-02-01T05:24:40;18.70;;;2.17;;
71941;SDS011;59997;53.300;-6.260;2023-02-01T05:27:06;16.07;;;1.60;;
71941;SDS011;59997;53.300;-6.260;2023-02-01T05:29:31;17.67;;;2.28;;
71941;SDS011;59997;53.300;-6.260;2023-02-01T05:31:57;19.23;;;1.90;;
71941;SDS011;59997;53.300;-6.260;2023-02-01T05:34:22;22.43;;;2.80;;
71941;SDS011;59997;53.300;-6.260;2023-02-01T05:36:48;20.03;;;2.30;;
71941;SDS011;59997;53.300;-6.260;2023-02-01T05:39:13;14.05;;;1.67;;
71941;SDS011;59997;53.300;-6.260;2023-02-01T05:41:39;16.53;;;1.77;;
71941;SDS011;59997;53.300;-6.260;2023-02-01T05:44:04;15.13;;;1.80;;
71941;SDS011;59997;53.300;-6.260;2023-02-01T05:46:32;12.98;;;1.90;;
71941;SDS011;59997;53.300;-6.260;2023-02-01T05:48:58;16.75;;;1.50;;
71941;SDS011;59997;53.300;-6.260;2023-02-01T05:51:23;19.63;;;1.70;;
71941;SDS011;59997;53.300;-6.260;2023-02-01T05:53:49;14.50;;;1.60;;
71941;SDS011;59997;53.300;-6.260;2023-02-01T05:56:14;15.40;;;1.40;;
71941;SDS011;59997;53.300;-6.260;2023-02-01T05:58:40;16.35;;;1.95;;
71941;SDS011;59997;53.300;-6.260;2023-02-01T06:01:05;21.27;;;1.77;;
71941;SDS011;59997;53.300;-6.260;2023-02-01T06:03:31;12.40;;;1.33;;
71941;SDS011;59997;53.300;-6.260;2023-02-01T06:05:56;18.20;;;2.08;;
71941;SDS011;59997;53.300;-6.260;2023-02-01T06:08:22;14.20;;;1.60;;
71941;SDS011;59997;53.300;-6.260;2023-02-01T06:10:49;20.95;;;2.42;;
71941;SDS011;59997;53.300;-6.260;2023-02-01T06:13:15;16.90;;;1.90;;
71941;SDS011;59997;53.300;-6.260;2023-02-01T06:15:40;12.02;;;2.35;;
71941;SDS011;59997;53.300;-6.260;2023-02-01T06:18:09;21.07;;;2.00;;
71941;SDS011;59997;53.300;-6.260;2023-02-01T06:20:35;17.35;;;2.35;;
71941;SDS011;59997;53.300;-6.260;2023-02-01T06:23:00;18.67;;;1.70;;
71941;SDS011;59997;53.300;-6.260;2023-02-01T06:25:25;14.00;;;1.53;;
71941;SDS011;59997;53.300;-6.260;2023-02-01T06:27:51;17.23;;;2.20;;
71941;SDS011;59997;53.300;-6.260;2023-02-01T06:30:16;18.52;;;1.70;;
71941;SDS011;59997;53.300;-6.260;2023-02-01T06:32:42;17.77;;;2.37;;
71941;SDS011;59997;53.300;-6.260;2023-02-01T06:35:08;19.23;;;2.50;;
71941;SDS011;59997;53.300;-6.260;2023-02-01T06:37:41;18.67;;;2.00;;
71941;SDS011;59997;53.300;-6.260;2023-02-01T06:40:07;15.88;;;1.67;;
71941;SDS011;59997;53.300;-6.260;2023-02-01T06:42:33;15.02;;;1.73;;
71941;SDS011;59997;53.300;-6.260;2023-02-01T06:44:59;12.80;;;1.50;;
71941;SDS011;59997;53.300;-6.260;2023-02-01T06:47:24;16.27;;;1.63;;
71941;SDS011;59997;53.300;-6.260;2023-02-01T06:49:50;19.05;;;2.70;;
71941;SDS011;59997;53.300;-6.260;2023-02-01T06:52:15;22.30;;;2.47;;
71941;SDS011;59997;53.300;-6.260;2023-02-01T06:54:41;22.87;;;2.07;;
71941;SDS011;59997;53.300;-6.260;2023-02-01T06:57:06;19.40;;;1.80;;
71941;SDS011;59997;53.300;-6.260;2023-02-01T06:59:31;25.35;;;2.45;;
71941;SDS011;59997;53.300;-6.260;2023-02-01T07:01:57;18.20;;;2.03;;
71941;SDS011;59997;53.300;-6.260;2023-02-01T07:04:22;15.37;;;1.30;;
71941;SDS011;59997;53.300;-6.260;2023-02-01T07:06:48;20.00;;;2.10;;
71941;SDS011;59997;53.300;-6.260;2023-02-01T07:09:13;15.93;;;2.08;;
71941;SDS011;59997;53.300;-6.260;2023-02-01T07:11:39;21.53;;;2.27;;
71941;SDS011;59997;53.300;-6.260;2023-02-01T07:14:11;18.00;;;2.17;;
71941;SDS011;59997;53.300;-6.260;2023-02-01T07:16:37;17.02;;;1.75;;
71941;SDS011;59997;53.300;-6.260;2023-02-01T07:19:02;19.97;;;2.17;;
71941;SDS011;59997;53.300;-6.260;2023-02-01T07:21:29;41.67;;;8.15;;
71941;SDS011;59997;53.300;-6.260;2023-02-01T07:23:54;22.90;;;5.97;;
71941;SDS011;59997;53.300;-6.260;2023-02-01T07:26:20;24.27;;;3.67;;
71941;SDS011;59997;53.300;-6.260;2023-02-01T07:28:46;13.70;;;2.28;;
71941;SDS011;59997;53.300;-6.260;2023-02-01T07:31:18;23.10;;;2.43;;
71941;SDS011;59997;53.300;-6.260;2023-02-01T07:33:47;17.63;;;1.98;;
71941;SDS011;59997;53.300;-6.260;2023-02-01T07:36:16;18.77;;;1.65;;
71941;SDS011;59997;53.300;-6.260;2023-02-01T07:38:43;13.60;;;1.58;;
71941;SDS011;59997;53.300;-6.260;2023-02-01T07:41:09;23.33;;;2.22;;
71941;SDS011;59997;53.300;-6.260;2023-02-01T07:43:35;12.40;;;1.47;;
71941;SDS011;59997;53.300;-6.260;2023-02-01T07:46:01;17.60;;;2.03;;
71941;SDS011;59997;53.300;-6.260;2023-02-01T07:48:28;11.45;;;1.55;;
71941;SDS011;59997;53.300;-6.260;2023-02-01T07:50:57;18.67;;;2.05;;
71941;SDS011;59997;53.300;-6.260;2023-02-01T07:53:28;19.60;;;2.20;;
71941;SDS011;59997;53.300;-6.260;2023-02-01T07:55:55;17.23;;;2.25;;
71941;SDS011;59997;53.300;-6.260;2023-02-01T07:58:24;28.77;;;4.72;;
71941;SDS011;59997;53.300;-6.260;2023-02-01T08:00:50;19.52;;;3.75;;
71941;SDS011;59997;53.300;-6.260;2023-02-01T08:03:34;20.10;;;3.05;;
71941;SDS011;59997;53.300;-6.260;2023-02-01T08:05:59;20.47;;;3.00;;
71941;SDS011;59997;53.300;-6.260;2023-02-01T08:08:25;19.03;;;2.60;;
71941;SDS011;59997;53.300;-6.260;2023-02-01T08:10:50;20.97;;;2.80;;
71941;SDS011;59997;53.300;-6.260;2023-02-01T08:13:16;20.20;;;3.80;;
71941;SDS011;59997;53.300;-6.260;2023-02-01T08:15:41;20.87;;;2.47;;
71941;SDS011;59997;53.300;-6.260;2023-02-01T08:18:07;15.37;;;1.90;;
71941;SDS011;59997;53.300;-6.260;2023-02-01T08:20:33;18.05;;;2.38;;
71941;SDS011;59997;53.300;-6.260;2023-02-01T08:23:01;21.03;;;2.63;;
71941;SDS011;59997;53.300;-6.260;2023-02-01T08:25:27;26.15;;;3.80;;
71941;SDS011;59997;53.300;-6.260;2023-02-01T08:27:53;27.83;;;4.15;;
71941;SDS011;59997;53.300;-6.260;2023-02-01T08:30:19;21.77;;;3.47;;
71941;SDS011;59997;53.300;-6.260;2023-02-01T08:32:45;25.17;;;3.30;;
71941;SDS011;59997;53.300;-6.260;2023-02-01T08:35:11;23.88;;;4.20;;
71941;SDS011;59997;53.300;-6.260;2023-02-01T08:37:36;28.50;;;3.93;;
71941;SDS011;59997;53.300;-6.260;2023-02-01T08:40:02;23.90;;;3.47;;
71941;SDS011;59997;53.300;-6.260;2023-02-01T08:42:28;17.92;;;3.10;;
71941;SDS011;59997;53.300;-6.260;2023-02-01T08:45:13;16.35;;;2.40;;
71941;SDS011;59997;53.300;-6.260;2023-02-01T08:47:39;17.53;;;2.67;;
71941;SDS011;59997;53.300;-6.260;2023-02-01T08:50:04;15.57;;;3.03;;
71941;SDS011;59997;53.300;-6.260;2023-02-01T08:52:30;17.33;;;3.03;;
71941;SDS011;59997;53.300;-6.260;2023-02-01T08:54:56;20.77;;;3.23;;
71941;SDS011;59997;53.300;-6.260;2023-02-01T08:57:21;18.40;;;2.60;;
71941;SDS011;59997;53.300;-6.260;2023-02-01T08:59:47;22.97;;;2.97;;
71941;SDS011;59997;53.300;-6.260;2023-02-01T09:02:13;14.55;;;1.88;;
71941;SDS011;59997;53.300;-6.260;2023-02-01T09:04:40;15.13;;;2.33;;
71941;SDS011;59997;53.300;-6.260;2023-02-01T09:07:06;15.07;;;2.75;;
71941;SDS011;59997;53.300;-6.260;2023-02-01T09:09:32;25.60;;;5.38;;
71941;SDS011;59997;53.300;-6.260;2023-02-01T09:11:58;24.67;;;6.80;;
71941;SDS011;59997;53.300;-6.260;2023-02-01T09:14:23;19.80;;;3.38;;
71941;SDS011;59997;53.300;-6.260;2023-02-01T09:16:48;15.43;;;2.50;;
71941;SDS011;59997;53.300;-6.260;2023-02-01T09:19:14;20.63;;;2.97;;
71941;SDS011;59997;53.300;-6.260;2023-02-01T09:21:40;21.88;;;2.67;;
71941;SDS011;59997;53.300;-6.260;2023-02-01T09:24:05;16.83;;;2.60;;
71941;SDS011;59997;53.300;-6.260;2023-02-01T09:26:31;19.80;;;2.22;;
71941;SDS011;59997;53.300;-6.260;2023-02-01T09:28:57;17.63;;;2.60;;
71941;SDS011;59997;53.300;-6.260;2023-02-01T09:31:23;13.77;;;2.10;;
71941;SDS011;59997;53.300;-6.260;2023-02-01T09:33:48;16.33;;;2.17;;
71941;SDS011;59997;53.300;-6.260;2023-02-01T09:36:14;20.97;;;2.20;;
71941;SDS011;59997;53.300;-6.260;2023-02-01T09:38:39;20.73;;;2.10;;
71941;SDS011;59997;53.300;-6.260;2023-02-01T09:41:14;13.77;;;2.20;;
71941;SDS011;59997;53.300;-6.260;2023-02-01T09:43:48;19.00;;;2.33;;
71941;SDS011;59997;53.300;-6.260;2023-02-01T09:46:22;15.40;;;1.83;;
71941;SDS011;59997;53.300;-6.260;2023-02-01T09:48:55;16.10;;;1.90;;
71941;SDS011;59997;53.300;-6.260;2023-02-01T09:51:33;18.67;;;2.92;;
71941;SDS011;59997;53.300;-6.260;2023-02-01T09:54:17;18.00;;;2.28;;
71941;SDS011;59997;53.300;-6.260;2023-02-01T09:56:53;14.87;;;2.00;;
71941;SDS011;59997;53.300;-6.260;2023-02-01T09:59:29;21.38;;;2.05;;
71941;SDS011;59997;53.300;-6.260;2023-02-01T10:02:08;20.48;;;2.40;;
71941;SDS011;59997;53.300;-6.260;2023-02-01T10:04:38;17.38;;;2.20;;
71941;SDS011;59997;53.300;-6.260;2023-02-01T10:09:50;17.00;;;2.40;;
71941;SDS011;59997;53.300;-6.260;2023-02-01T10:12:33;14.65;;;2.08;;
71941;SDS011;59997;53.300;-6.260;2023-02-01T10:15:17;15.48;;;2.05;;
71941;SDS011;59997;53.300;-6.260;2023-02-01T10:25:55;17.48;;;2.47;;
71941;SDS011;59997;53.300;-6.260;2023-02-01T10:28:21;17.77;;;2.47;;
71941;SDS011;59997;53.300;-6.260;2023-02-01T10:30:49;19.58;;;2.70;;
71941;SDS011;59997;53.300;-6.260;2023-02-01T10:33:26;14.10;;;2.15;;
71941;SDS011;59997;53.300;-6.260;2023-02-01T10:36:08;9.00;;;1.73;;
71941;SDS011;59997;53.300;-6.260;2023-02-01T10:38:42;13.32;;;1.52;;
71941;SDS011;59997;53.300;-6.260;2023-02-01T10:41:15;12.68;;;1.80;;
71941;SDS011;59997;53.300;-6.260;2023-02-01T10:43:43;13.57;;;1.90;;
71941;SDS011;59997;53.300;-6.260;2023-02-01T10:46:11;15.73;;;2.13;;
71941;SDS011;59997;53.300;-6.260;2023-02-01T10:48:36;14.43;;;2.27;;
71941;SDS011;59997;53.300;-6.260;2023-02-01T10:56:28;15.47;;;2.13;;
71941;SDS011;59997;53.300;-6.260;2023-02-01T10:59:01;16.48;;;2.25;;
71941;SDS011;59997;53.300;-6.260;2023-02-01T11:01:30;15.32;;;2.67;;
71941;SDS011;59997;53.300;-6.260;2023-02-01T11:04:03;13.93;;;2.40;;
71941;SDS011;59997;53.300;-6.260;2023-02-01T11:06:37;11.50;;;1.88;;
71941;SDS011;59997;53.300;-6.260;2023-02-01T11:11:32;12.98;;;2.05;;
71941;SDS011;59997;53.300;-6.260;2023-02-01T11:14:27;13.07;;;2.20;;
71941;SDS011;59997;53.300;-6.260;2023-02-01T11:17:04;17.05;;;2.70;;
71941;SDS011;59997;53.300;-6.260;2023-02-01T11:19:44;15.75;;;2.85;;
71941;SDS011;59997;53.300;-6.260;2023-02-01T11:22:11;19.13;;;3.07;;
71941;SDS011;59997;53.300;-6.260;2023-02-01T11:24:37;17.27;;;2.58;;
71941;SDS011;59997;53.300;-6.260;2023-02-01T11:27:05;19.55;;;2.53;;
71941;SDS011;59997;53.300;-6.260;2023-02-01T11:29:41;16.27;;;1.90;;
71941;SDS011;59997;53.300;-6.260;2023-02-01T11:32:10;19.33;;;2.25;;
71941;SDS011;59997;53.300;-6.260;2023-02-01T11:37:54;14.85;;;2.00;;
71941;SDS011;59997;53.300;-6.260;2023-02-01T11:42:52;15.07;;;2.40;;
71941;SDS011;59997;53.300;-6.260;2023-02-01T11:45:20;16.10;;;1.88;;
71941;SDS011;59997;53.300;-6.260;2023-02-01T11:47:55;14.97;;;1.87;;
71941;SDS011;59997;53.300;-6.260;2023-02-01T11:50:28;10.70;;;2.08;;
71941;SDS011;59997;53.300;-6.260;2023-02-01T11:55:42;13.73;;;2.50;;
71941;SDS011;59997;53.300;-6.260;2023-02-01T12:01:26;16.73;;;2.57;;
71941;SDS011;59997;53.300;-6.260;2023-02-01T12:04:03;17.45;;;2.20;;
71941;SDS011;59997;53.300;-6.260;2023-02-01T12:06:56;21.35;;;2.70;;
71941;SDS011;59997;53.300;-6.260;2023-02-01T12:23:00;10.52;;;2.00;;
71941;SDS011;59997;53.300;-6.260;2023-02-01T12:33:34;13.43;;;1.63;;
71941;SDS011;59997;53.300;-6.260;2023-02-01T12:42:11;12.95;;;1.90;;
71941;SDS011;59997;53.300;-6.260;2023-02-01T12:44:37;14.68;;;1.92;;
71941;SDS011;59997;53.300;-6.260;2023-02-01T12:47:12;18.20;;;2.20;;
71941;SDS011;59997;53.300;-6.260;2023-02-01T12:50:03;13.88;;;2.08;;
71941;SDS011;59997;53.300;-6.260;2023-02-01T12:52:48;12.40;;;1.70;;
71941;SDS011;59997;53.300;-6.260;2023-02-01T12:55:27;11.65;;;1.42;;
71941;SDS011;59997;53.300;-6.260;2023-02-01T12:58:09;13.70;;;2.42;;
71941;SDS011;59997;53.300;-6.260;2023-02-01T13:00:40;16.30;;;2.10;;
71941;SDS011;59997;53.300;-6.260;2023-02-01T13:03:38;13.73;;;2.00;;
71941;SDS011;59997;53.300;-6.260;2023-02-01T13:08:45;12.47;;;1.60;;
71941;SDS011;59997;53.300;-6.260;2023-02-01T13:11:28;13.85;;;2.10;;
71941;SDS011;59997;53.300;-6.260;2023-02-01T13:14:05;11.90;;;1.98;;
71941;SDS011;59997;53.300;-6.260;2023-02-01T13:16:51;15.50;;;1.98;;
71941;SDS011;59997;53.300;-6.260;2023-02-01T13:21:58;15.25;;;2.10;;
71941;SDS011;59997;53.300;-6.260;2023-02-01T13:24:33;14.05;;;2.40;;
71941;SDS011;59997;53.300;-6.260;2023-02-01T13:27:03;13.52;;;1.92;;
71941;SDS011;59997;53.300;-6.260;2023-02-01T13:29:29;15.00;;;2.03;;
71941;SDS011;59997;53.300;-6.260;2023-02-01T13:34:45;15.18;;;1.98;;
71941;SDS011;59997;53.300;-6.260;2023-02-01T13:40:39;11.20;;;1.48;;
71941;SDS011;59997;53.300;-6.260;2023-02-01T13:43:29;10.43;;;1.42;;
71941;SDS011;59997;53.300;-6.260;2023-02-01T13:45:56;12.20;;;1.70;;
71941;SDS011;59997;53.300;-6.260;2023-02-01T13:48:47;12.98;;;1.50;;
71941;SDS011;59997;53.300;-6.260;2023-02-01T13:51:17;14.80;;;1.65;;
71941;SDS011;59997;53.300;-6.260;2023-02-01T13:54:06;12.88;;;1.70;;
71941;SDS011;59997;53.300;-6.260;2023-02-01T13:56:48;11.20;;;1.60;;
71941;SDS011;59997;53.300;-6.260;2023-02-01T14:23:46;13.90;;;2.40;;
71941;SDS011;59997;53.300;-6.260;2023-02-01T14:26:21;10.95;;;2.05;;
71941;SDS011;59997;53.300;-6.260;2023-02-01T14:28:53;12.40;;;2.20;;
71941;SDS011;59997;53.300;-6.260;2023-02-01T14:31:33;13.05;;;1.98;;
71941;SDS011;59997;53.300;-6.260;2023-02-01T14:34:15;15.33;;;1.83;;
71941;SDS011;59997;53.300;-6.260;2023-02-01T14:36:51;11.05;;;1.70;;
71941;SDS011;59997;53.300;-6.260;2023-02-01T14:39:40;10.77;;;1.98;;
71941;SDS011;59997;53.300;-6.260;2023-02-01T14:47:48;15.77;;;1.53;;
71941;SDS011;59997;53.300;-6.260;2023-02-01T14:53:08;9.35;;;3.10;;
71941;SDS011;59997;53.300;-6.260;2023-02-01T15:04:11;11.70;;;1.88;;
71941;SDS011;59997;53.300;-6.260;2023-02-01T15:14:47;10.00;;;1.37;;
71941;SDS011;59997;53.300;-6.260;2023-02-01T15:17:28;9.82;;;1.35;;
71941;SDS011;59997;53.300;-6.260;2023-02-01T15:22:53;12.00;;;1.60;;
71941;SDS011;59997;53.300;-6.260;2023-02-01T15:25:24;12.73;;;1.50;;
71941;SDS011;59997;53.300;-6.260;2023-02-01T15:27:54;13.83;;;2.03;;
71941;SDS011;59997;53.300;-6.260;2023-02-01T15:30:29;15.48;;;1.85;;
71941;SDS011;59997;53.300;-6.260;2023-02-01T15:33:30;12.77;;;1.67;;
71941;SDS011;59997;53.300;-6.260;2023-02-01T15:35:50;11.15;;;1.52;;
71941;SDS011;59997;53.300;-6.260;2023-02-01T15:38:40;10.57;;;1.25;;
71941;SDS011;59997;53.300;-6.260;2023-02-01T15:41:08;12.83;;;1.40;;
71941;SDS011;59997;53.300;-6.260;2023-02-01T15:46:11;15.47;;;1.60;;
71941;SDS011;59997;53.300;-6.260;2023-02-01T15:48:44;11.07;;;1.17;;
71941;SDS011;59997;53.300;-6.260;2023-02-01T15:51:12;12.57;;;1.45;;
71941;SDS011;59997;53.300;-6.260;2023-02-01T15:53:50;9.02;;;1.30;;
71941;SDS011;59997;53.300;-6.260;2023-02-01T15:56:27;8.63;;;1.25;;
71941;SDS011;59997;53.300;-6.260;2023-02-01T15:58:57;10.37;;;1.30;;
71941;SDS011;59997;53.300;-6.260;2023-02-01T16:01:24;9.57;;;1.08;;
71941;SDS011;59997;53.300;-6.260;2023-02-01T16:04:00;10.63;;;1.48;;
71941;SDS011;59997;53.300;-6.260;2023-02-01T16:06:30;13.13;;;1.25;;
71941;SDS011;59997;53.300;-6.260;2023-02-01T16:09:00;7.45;;;0.85;;
71941;SDS011;59997;53.300;-6.260;2023-02-01T16:12:20;9.00;;;1.77;;
71941;SDS011;59997;53.300;-6.260;2023-02-01T16:14:28;9.10;;;1.27;;
71941;SDS011;59997;53.300;-6.260;2023-02-01T16:16:56;8.70;;;1.25;;
71941;SDS011;59997;53.300;-6.260;2023-02-01T16:19:22;8.20;;;1.42;;
71941;SDS011;59997;53.300;-6.260;2023-02-01T16:21:53;8.82;;;1.40;;
71941;SDS011;59997;53.300;-6.260;2023-02-01T16:24:19;12.17;;;1.27;;
71941;SDS011;59997;53.300;-6.260;2023-02-01T16:26:48;9.05;;;1.38;;
71941;SDS011;59997;53.300;-6.260;2023-02-01T16:29:13;9.95;;;1.20;;
71941;SDS011;59997;53.300;-6.260;2023-02-01T16:34:35;14.60;;;1.60;;
71941;SDS011;59997;53.300;-6.260;2023-02-01T16:37:02;12.38;;;1.30;;
71941;SDS011;59997;53.300;-6.260;2023-02-01T16:39:28;12.40;;;1.30;;
71941;SDS011;59997;53.300;-6.260;2023-02-01T16:41:54;9.48;;;1.75;;
71941;SDS011;59997;53.300;-6.260;2023-02-01T16:44:20;12.93;;;1.63;;
71941;SDS011;59997;53.300;-6.260;2023-02-01T16:46:46;16.40;;;1.47;;
71941;SDS011;59997;53.300;-6.260;2023-02-01T16:49:20;14.52;;;1.85;;
71941;SDS011;59997;53.300;-6.260;2023-02-01T16:51:48;15.57;;;2.55;;
71941;SDS011;59997;53.300;-6.260;2023-02-01T16:54:18;14.38;;;1.95;;
71941;SDS011;59997;53.300;-6.260;2023-02-01T16:56:45;15.67;;;2.07;;
71941;SDS011;59997;53.300;-6.260;2023-02-01T16:59:11;13.30;;;2.13;;
71941;SDS011;59997;53.300;-6.260;2023-02-01T17:01:37;15.05;;;1.80;;
71941;SDS011;59997;53.300;-6.260;2023-02-01T17:04:03;9.18;;;1.70;;
71941;SDS011;59997;53.300;-6.260;2023-02-01T17:06:29;16.60;;;2.17;;
71941;SDS011;59997;53.300;-6.260;2023-02-01T17:08:58;11.32;;;2.00;;
71941;SDS011;59997;53.300;-6.260;2023-02-01T17:11:24;14.27;;;1.88;;
71941;SDS011;59997;53.300;-6.260;2023-02-01T17:13:51;11.68;;;1.80;;
71941;SDS011;59997;53.300;-6.260;2023-02-01T17:18:42;16.67;;;2.50;;